sensor_id;sensor_type;location;lat;lon;timestamp;P1;durP1;ratioP1;P2;durP2;ratioP2
60430;SDS011;46285;45.122;20.726;2023-01-05T00:03:25;68.50;;;25.70;;
60430;SDS011;46285;45.122;20.726;2023-01-05T00:13:26;86.47;;;27.10;;
60430;SDS011;46285;45.122;20.726;2023-01-05T00:23:27;93.10;;;30.38;;
60430;SDS011;46285;45.122;20.726;2023-01-05T00:33:28;84.10;;;29.70;;
60430;SDS011;46285;45.122;20.726;2023-01-05T00:43:29;135.73;;;37.53;;
60430;SDS011;46285;45.122;20.726;2023-01-05T00:53:31;137.88;;;32.80;;
60430;SDS011;46285;45.122;20.726;2023-01-05T01:03:32;108.22;;;31.08;;
60430;SDS011;46285;45.122;20.726;2023-01-05T01:13:33;138.48;;;35.80;;
60430;SDS011;46285;45.122;20.726;2023-01-05T01:23:35;132.10;;;39.22;;
60430;SDS011;46285;45.122;20.726;2023-01-05T01:33:38;205.65;;;44.50;;
60430;SDS011;46285;45.122;20.726;2023-01-05T01:53:41;236.85;;;55.15;;
60430;SDS011;46285;45.122;20.726;2023-01-05T02:03:42;222.15;;;51.42;;
60430;SDS011;46285;45.122;20.726;2023-01-05T02:34:06;200.35;;;54.22;;
60430;SDS011;46285;45.122;20.726;2023-01-05T02:44:09;232.00;;;56.83;;
60430;SDS011;46285;45.122;20.726;2023-01-05T02:54:15;223.30;;;53.72;;
60430;SDS011;46285;45.122;20.726;2023-01-05T03:04:24;206.73;;;55.95;;
60430;SDS011;46285;45.122;20.726;2023-01-05T03:14:31;220.55;;;53.35;;
60430;SDS011;46285;45.122;20.726;2023-01-05T03:24:35;255.60;;;62.13;;
60430;SDS011;46285;45.122;20.726;2023-01-05T03:44:47;168.70;;;52.90;;
60430;SDS011;46285;45.122;20.726;2023-01-05T03:54:50;196.52;;;58.25;;
60430;SDS011;46285;45.122;20.726;2023-01-05T04:04:52;201.85;;;59.00;;
60430;SDS011;46285;45.122;20.726;2023-01-05T04:14:54;212.65;;;66.85;;
60430;SDS011;46285;45.122;20.726;2023-01-05T04:24:57;176.73;;;62.65;;
60430;SDS011;46285;45.122;20.726;2023-01-05T04:35:00;198.18;;;64.38;;
60430;SDS011;46285;45.122;20.726;2023-01-05T04:45:02;172.45;;;57.10;;
60430;SDS011;46285;45.122;20.726;2023-01-05T04:55:04;149.68;;;58.00;;
60430;SDS011;46285;45.122;20.726;2023-01-05T05:05:06;144.25;;;58.72;;
60430;SDS011;46285;45.122;20.726;2023-01-05T05:15:09;118.93;;;51.90;;
60430;SDS011;46285;45.122;20.726;2023-01-05T05:25:15;114.60;;;54.28;;
60430;SDS011;46285;45.122;20.726;2023-01-05T05:35:20;103.75;;;49.78;;
60430;SDS011;46285;45.122;20.726;2023-01-05T05:45:21;114.57;;;52.53;;
60430;SDS011;46285;45.122;20.726;2023-01-05T05:55:22;110.30;;;48.65;;
60430;SDS011;46285;45.122;20.726;2023-01-05T06:05:24;93.93;;;45.85;;
60430;SDS011;46285;45.122;20.726;2023-01-05T06:15:25;118.72;;;55.67;;
60430;SDS011;46285;45.122;20.726;2023-01-05T06:25:26;98.68;;;48.25;;
60430;SDS011;46285;45.122;20.726;2023-01-05T06:35:27;103.32;;;55.05;;
60430;SDS011;46285;45.122;20.726;2023-01-05T06:45:28;113.63;;;59.22;;
60430;SDS011;46285;45.122;20.726;2023-01-05T06:55:29;97.43;;;50.88;;
60430;SDS011;46285;45.122;20.726;2023-01-05T07:05:31;130.45;;;65.65;;
60430;SDS011;46285;45.122;20.726;2023-01-05T07:15:32;131.43;;;70.80;;
60430;SDS011;46285;45.122;20.726;2023-01-05T07:25:33;104.70;;;53.80;;
60430;SDS011;46285;45.122;20.726;2023-01-05T07:35:34;102.15;;;58.72;;
60430;SDS011;46285;45.122;20.726;2023-01-05T07:45:39;89.78;;;52.17;;
60430;SDS011;46285;45.122;20.726;2023-01-05T07:55:53;85.05;;;46.08;;
60430;SDS011;46285;45.122;20.726;2023-01-05T08:06:04;62.67;;;37.42;;
60430;SDS011;46285;45.122;20.726;2023-01-05T08:16:39;56.90;;;33.83;;
60430;SDS011;46285;45.122;20.726;2023-01-05T08:26:40;59.83;;;35.38;;
60430;SDS011;46285;45.122;20.726;2023-01-05T08:36:41;55.20;;;35.05;;
60430;SDS011;46285;45.122;20.726;2023-01-05T08:46:42;43.55;;;29.88;;
60430;SDS011;46285;45.122;20.726;2023-01-05T08:56:43;51.80;;;32.60;;
60430;SDS011;46285;45.122;20.726;2023-01-05T09:06:45;43.17;;;27.67;;
60430;SDS011;46285;45.122;20.726;2023-01-05T09:16:46;38.45;;;25.40;;
60430;SDS011;46285;45.122;20.726;2023-01-05T09:26:47;37.28;;;25.88;;
60430;SDS011;46285;45.122;20.726;2023-01-05T09:36:48;36.67;;;25.83;;
60430;SDS011;46285;45.122;20.726;2023-01-05T09:46:50;41.88;;;26.58;;
60430;SDS011;46285;45.122;20.726;2023-01-05T09:56:52;54.28;;;32.42;;
60430;SDS011;46285;45.122;20.726;2023-01-05T10:06:56;37.80;;;25.13;;
60430;SDS011;46285;45.122;20.726;2023-01-05T10:16:58;40.50;;;27.90;;
60430;SDS011;46285;45.122;20.726;2023-01-05T10:27:44;33.08;;;22.30;;
60430;SDS011;46285;45.122;20.726;2023-01-05T10:57:41;46.58;;;28.85;;
60430;SDS011;46285;45.122;20.726;2023-01-05T11:07:47;24.30;;;17.83;;
60430;SDS011;46285;45.122;20.726;2023-01-05T11:17:48;26.50;;;17.80;;
60430;SDS011;46285;45.122;20.726;2023-01-05T11:28:07;35.72;;;23.58;;
60430;SDS011;46285;45.122;20.726;2023-01-05T11:38:25;29.00;;;19.50;;
60430;SDS011;46285;45.122;20.726;2023-01-05T11:59:26;27.25;;;20.95;;
60430;SDS011;46285;45.122;20.726;2023-01-05T12:09:32;34.47;;;22.63;;
60430;SDS011;46285;45.122;20.726;2023-01-05T12:50:26;33.38;;;24.60;;
60430;SDS011;46285;45.122;20.726;2023-01-05T13:00:30;40.35;;;32.13;;
60430;SDS011;46285;45.122;20.726;2023-01-05T13:10:38;38.97;;;28.50;;
60430;SDS011;46285;45.122;20.726;2023-01-05T13:20:48;33.28;;;24.52;;
60430;SDS011;46285;45.122;20.726;2023-01-05T13:31:07;75.85;;;50.70;;
60430;SDS011;46285;45.122;20.726;2023-01-05T13:41:17;39.95;;;25.52;;
60430;SDS011;46285;45.122;20.726;2023-01-05T14:01:45;33.60;;;24.80;;
60430;SDS011;46285;45.122;20.726;2023-01-05T14:22:32;31.42;;;19.30;;
60430;SDS011;46285;45.122;20.726;2023-01-05T14:32:35;44.53;;;28.97;;
60430;SDS011;46285;45.122;20.726;2023-01-05T14:42:37;53.45;;;33.03;;
60430;SDS011;46285;45.122;20.726;2023-01-05T14:53:01;57.05;;;38.35;;
60430;SDS011;46285;45.122;20.726;2023-01-05T15:03:11;62.55;;;41.58;;
60430;SDS011;46285;45.122;20.726;2023-01-05T15:33:41;73.82;;;51.47;;
60430;SDS011;46285;45.122;20.726;2023-01-05T15:43:45;106.13;;;78.38;;
60430;SDS011;46285;45.122;20.726;2023-01-05T15:53:55;81.72;;;54.47;;
60430;SDS011;46285;45.122;20.726;2023-01-05T16:04:06;113.13;;;74.28;;
60430;SDS011;46285;45.122;20.726;2023-01-05T16:24:56;80.30;;;59.13;;
60430;SDS011;46285;45.122;20.726;2023-01-05T16:34:37;99.82;;;71.18;;
60430;SDS011;46285;45.122;20.726;2023-01-05T16:44:39;93.80;;;69.80;;
60430;SDS011;46285;45.122;20.726;2023-01-05T16:54:40;142.60;;;88.03;;
60430;SDS011;46285;45.122;20.726;2023-01-05T17:04:41;65.13;;;49.00;;
60430;SDS011;46285;45.122;20.726;2023-01-05T17:14:48;123.18;;;82.43;;
60430;SDS011;46285;45.122;20.726;2023-01-05T17:24:55;119.82;;;79.88;;
60430;SDS011;46285;45.122;20.726;2023-01-05T17:34:57;284.20;;;151.52;;
60430;SDS011;46285;45.122;20.726;2023-01-05T17:45:00;358.80;;;206.55;;
60430;SDS011;46285;45.122;20.726;2023-01-05T17:55:06;169.68;;;101.88;;
60430;SDS011;46285;45.122;20.726;2023-01-05T18:05:10;139.57;;;85.22;;
60430;SDS011;46285;45.122;20.726;2023-01-05T18:15:33;121.63;;;84.18;;
60430;SDS011;46285;45.122;20.726;2023-01-05T18:25:35;94.07;;;59.65;;
60430;SDS011;46285;45.122;20.726;2023-01-05T18:35:39;188.38;;;119.45;;
60430;SDS011;46285;45.122;20.726;2023-01-05T18:45:41;166.37;;;108.10;;
60430;SDS011;46285;45.122;20.726;2023-01-05T18:55:42;98.80;;;69.65;;
60430;SDS011;46285;45.122;20.726;2023-01-05T19:05:43;61.45;;;42.42;;
60430;SDS011;46285;45.122;20.726;2023-01-05T19:16:21;48.53;;;34.40;;
60430;SDS011;46285;45.122;20.726;2023-01-05T19:26:25;44.42;;;31.40;;
60430;SDS011;46285;45.122;20.726;2023-01-05T19:36:53;53.00;;;36.17;;
60430;SDS011;46285;45.122;20.726;2023-01-05T19:46:54;61.67;;;42.75;;
60430;SDS011;46285;45.122;20.726;2023-01-05T19:56:56;72.32;;;49.40;;
60430;SDS011;46285;45.122;20.726;2023-01-05T20:06:58;45.13;;;33.50;;
60430;SDS011;46285;45.122;20.726;2023-01-05T20:27:02;41.28;;;28.52;;
60430;SDS011;46285;45.122;20.726;2023-01-05T20:37:04;38.58;;;26.33;;
60430;SDS011;46285;45.122;20.726;2023-01-05T20:47:06;47.78;;;30.77;;
60430;SDS011;46285;45.122;20.726;2023-01-05T20:57:08;84.30;;;57.67;;
60430;SDS011;46285;45.122;20.726;2023-01-05T21:07:09;40.45;;;30.25;;
60430;SDS011;46285;45.122;20.726;2023-01-05T21:17:10;31.42;;;23.00;;
60430;SDS011;46285;45.122;20.726;2023-01-05T21:27:12;88.70;;;52.00;;
60430;SDS011;46285;45.122;20.726;2023-01-05T21:37:14;29.83;;;20.50;;
60430;SDS011;46285;45.122;20.726;2023-01-05T21:47:15;30.95;;;19.95;;
60430;SDS011;46285;45.122;20.726;2023-01-05T21:57:16;42.85;;;28.35;;
60430;SDS011;46285;45.122;20.726;2023-01-05T22:07:18;37.22;;;20.52;;
60430;SDS011;46285;45.122;20.726;2023-01-05T22:17:19;46.80;;;33.05;;
60430;SDS011;46285;45.122;20.726;2023-01-05T22:27:20;31.60;;;20.45;;
60430;SDS011;46285;45.122;20.726;2023-01-05T22:37:21;33.08;;;20.20;;
60430;SDS011;46285;45.122;20.726;2023-01-05T22:47:23;30.60;;;20.45;;
60430;SDS011;46285;45.122;20.726;2023-01-05T22:57:24;25.52;;;15.88;;
60430;SDS011;46285;45.122;20.726;2023-01-05T23:07:25;22.92;;;13.93;;
60430;SDS011;46285;45.122;20.726;2023-01-05T23:17:26;16.58;;;10.40;;
60430;SDS011;46285;45.122;20.726;2023-01-05T23:27:27;16.60;;;10.30;;
60430;SDS011;46285;45.122;20.726;2023-01-05T23:37:29;19.17;;;11.07;;
60430;SDS011;46285;45.122;20.726;2023-01-05T23:47:30;21.40;;;13.82;;
60430;SDS011;46285;45.122;20.726;2023-01-05T23:57:31;20.10;;;11.95;;
